createdAt,value
2023-04-30T00:00:35.072Z,61.16
2023-04-30T00:01:56.531Z,60.98
2023-04-30T00:02:58.107Z,60.86
2023-04-30T00:03:59.698Z,61.22
2023-04-30T00:05:01.480Z,61.19
2023-04-30T00:06:03.040Z,60.99
2023-04-30T00:07:04.540Z,61.13
2023-04-30T00:08:06.035Z,61.04
2023-04-30T00:09:07.409Z,61.24
2023-04-30T00:10:10.376Z,61.10
2023-04-30T00:11:11.809Z,61.10
2023-04-30T00:12:13.374Z,61.01
2023-04-30T00:13:14.926Z,61.13
2023-04-30T00:14:16.313Z,61.24
2023-04-30T00:15:17.758Z,61.08
2023-04-30T00:16:19.330Z,61.10
2023-04-30T00:17:21.078Z,61.18
2023-04-30T00:18:22.454Z,61.12
2023-04-30T00:19:24.202Z,61.18
2023-04-30T00:20:25.785Z,61.32
2023-04-30T00:21:27.213Z,61.06
2023-04-30T00:22:28.789Z,61.10
2023-04-30T00:23:30.272Z,61.05
2023-04-30T00:24:31.710Z,61.18
2023-04-30T00:25:33.087Z,61.04
2023-04-30T00:26:34.559Z,60.94
2023-04-30T00:27:36.131Z,60.99
2023-04-30T00:28:37.525Z,61.04
2023-04-30T00:29:39.160Z,60.89
2023-04-30T00:30:40.562Z,60.95
2023-04-30T00:31:42.522Z,60.81
2023-04-30T00:32:45.226Z,60.96
2023-04-30T00:33:46.710Z,61.00
2023-04-30T00:34:48.116Z,61.00
2023-04-30T00:35:49.658Z,60.92
2023-04-30T00:36:51.187Z,61.06
2023-04-30T00:37:52.703Z,61.01
2023-04-30T00:38:54.114Z,61.03
2023-04-30T00:39:55.902Z,61.18
2023-04-30T00:40:57.847Z,60.92
2023-04-30T00:41:59.267Z,61.11
2023-04-30T00:43:01.103Z,60.95
2023-04-30T00:44:02.655Z,61.03
2023-04-30T00:45:04.666Z,61.00
2023-04-30T00:46:06.071Z,60.91
2023-04-30T00:47:07.582Z,60.87
2023-04-30T00:48:09.539Z,61.15
2023-04-30T00:49:11.231Z,61.02
2023-04-30T00:50:15.165Z,60.91
2023-04-30T00:51:16.743Z,61.04
2023-04-30T00:52:18.231Z,61.17
2023-04-30T00:53:19.850Z,61.12
2023-04-30T00:54:23.628Z,61.05
2023-04-30T00:55:25.986Z,61.17
2023-04-30T00:56:28.229Z,60.95
2023-04-30T00:57:29.955Z,60.97
2023-04-30T00:58:31.580Z,61.22
2023-04-30T00:59:33.158Z,61.17
2023-04-30T01:00:34.867Z,60.94
2023-04-30T01:01:36.780Z,61.22
2023-04-30T01:02:38.332Z,61.25
2023-04-30T01:03:41.790Z,61.51
2023-04-30T01:04:43.466Z,61.39
2023-04-30T01:05:45.022Z,61.65
2023-04-30T01:06:46.456Z,61.25
2023-04-30T01:07:48.790Z,61.60
2023-04-30T01:08:50.611Z,61.25
2023-04-30T01:09:52.252Z,61.52
2023-04-30T01:11:03.621Z,61.49
2023-04-30T01:12:12.986Z,61.45
2023-04-30T01:13:29.911Z,61.55
2023-04-30T01:14:45.166Z,61.62
2023-04-30T01:16:20.208Z,61.65
2023-04-30T01:17:48.658Z,61.67
2023-04-30T01:19:00.818Z,61.64
2023-04-30T01:20:03.515Z,61.76
2023-04-30T01:21:05.775Z,61.78
2023-04-30T01:22:14.114Z,61.64
2023-04-30T01:23:39.357Z,61.67
2023-04-30T01:25:18.490Z,61.88
2023-04-30T01:26:39.701Z,61.78
2023-04-30T01:28:04.967Z,62.00
2023-04-30T01:29:08.049Z,62.19
2023-04-30T01:30:11.294Z,62.01
2023-04-30T01:32:49.215Z,62.06
2023-04-30T01:33:50.789Z,62.14
2023-04-30T01:34:52.163Z,62.09
2023-04-30T01:36:15.558Z,62.15
2023-04-30T01:37:28.203Z,62.18
2023-04-30T01:39:07.899Z,62.13
2023-04-30T01:40:23.120Z,62.58
2023-04-30T01:41:50.004Z,62.35
2023-04-30T01:43:08.429Z,62.45
2023-04-30T01:44:45.284Z,62.65
2023-04-30T01:46:05.724Z,62.57
2023-04-30T01:47:30.357Z,62.70
2023-04-30T01:48:37.757Z,62.81
2023-04-30T01:50:05.294Z,62.58
2023-04-30T01:51:24.202Z,62.89
2023-04-30T01:52:40.448Z,62.73
2023-04-30T01:53:43.989Z,62.62
2023-04-30T01:54:58.628Z,62.74
2023-04-30T01:56:03.721Z,62.83
2023-04-30T01:57:12.223Z,62.87
2023-04-30T01:58:15.191Z,63.23
2023-04-30T01:59:17.131Z,63.04
2023-04-30T02:00:18.793Z,62.99
2023-04-30T02:01:26.701Z,63.04
2023-04-30T02:02:28.382Z,62.92
2023-04-30T02:03:31.814Z,63.21
2023-04-30T02:04:33.441Z,63.24
2023-04-30T02:05:34.940Z,62.95
2023-04-30T02:06:36.504Z,63.19
2023-04-30T02:07:43.980Z,63.28
2023-04-30T02:08:45.662Z,63.23
2023-04-30T02:09:47.120Z,63.39
2023-04-30T02:10:48.590Z,63.44
2023-04-30T02:11:50.689Z,63.24
2023-04-30T02:12:52.924Z,63.60
2023-04-30T02:13:54.449Z,63.69
2023-04-30T02:14:56.215Z,63.57
2023-04-30T02:15:57.645Z,63.41
2023-04-30T02:16:59.288Z,63.56
2023-04-30T02:18:01.068Z,63.67
2023-04-30T02:19:02.752Z,63.75
2023-04-30T02:20:04.873Z,63.40
2023-04-30T02:21:06.349Z,63.74
2023-04-30T02:22:07.864Z,63.70
2023-04-30T02:23:10.894Z,64.00
2023-04-30T02:24:12.526Z,63.86
2023-04-30T02:25:13.954Z,63.93
2023-04-30T02:26:15.349Z,63.88
2023-04-30T02:27:17.620Z,63.83
2023-04-30T02:28:19.086Z,64.11
2023-04-30T02:29:20.722Z,63.91
2023-04-30T02:30:22.118Z,64.11
2023-04-30T02:31:23.663Z,64.07
2023-04-30T02:32:25.257Z,64.18
2023-04-30T02:33:26.672Z,64.08
2023-04-30T02:34:28.171Z,64.19
2023-04-30T02:35:29.566Z,64.23
2023-04-30T02:36:35.541Z,64.15
2023-04-30T02:37:36.980Z,64.56
2023-04-30T02:38:38.463Z,64.34
2023-04-30T02:39:40.562Z,64.28
2023-04-30T02:40:42.165Z,64.41
2023-04-30T02:41:43.658Z,64.42
2023-04-30T02:42:45.208Z,64.62
2023-04-30T02:43:46.660Z,64.48
2023-04-30T02:44:48.057Z,64.87
2023-04-30T02:45:49.611Z,64.73
2023-04-30T02:46:51.063Z,64.60
2023-04-30T02:47:52.692Z,64.84
2023-04-30T02:48:54.180Z,64.93
2023-04-30T02:49:56.030Z,65.02
2023-04-30T02:50:57.744Z,65.14
2023-04-30T02:51:59.272Z,64.91
2023-04-30T02:53:01.216Z,65.04
2023-04-30T02:54:02.748Z,65.06
2023-04-30T02:55:04.752Z,65.01
2023-04-30T02:56:06.593Z,65.21
2023-04-30T02:57:08.262Z,65.50
2023-04-30T02:58:09.705Z,65.35
2023-04-30T02:59:11.238Z,65.26
2023-04-30T03:00:13.000Z,66.18
2023-04-30T03:01:15.086Z,65.63
2023-04-30T03:02:20.499Z,65.61
2023-04-30T03:03:22.037Z,66.24
2023-04-30T03:04:23.647Z,65.65
2023-04-30T03:05:25.150Z,65.81
2023-04-30T03:06:26.555Z,65.68
2023-04-30T03:07:27.981Z,65.98
2023-04-30T03:08:29.449Z,65.87
2023-04-30T03:09:31.639Z,65.96
2023-04-30T03:10:33.072Z,66.21
2023-04-30T03:11:36.857Z,66.17
2023-04-30T03:12:38.464Z,66.15
2023-04-30T03:13:40.917Z,66.38
2023-04-30T03:14:42.318Z,66.41
2023-04-30T03:15:44.086Z,66.26
2023-04-30T03:16:47.009Z,66.58
2023-04-30T03:17:48.522Z,66.27
2023-04-30T03:18:50.480Z,66.51
2023-04-30T03:19:52.350Z,66.57
2023-04-30T03:20:54.173Z,66.64
2023-04-30T03:21:55.934Z,66.55
2023-04-30T03:22:57.325Z,66.69
2023-04-30T03:23:58.780Z,66.71
2023-04-30T03:25:00.678Z,66.86
2023-04-30T03:26:02.736Z,66.88
2023-04-30T03:27:04.165Z,67.00
2023-04-30T03:28:05.649Z,66.93
2023-04-30T03:29:07.100Z,66.96
2023-04-30T03:30:09.142Z,67.21
2023-04-30T03:31:10.773Z,67.06
2023-04-30T03:32:12.183Z,67.71
2023-04-30T03:33:13.762Z,67.38
2023-04-30T03:34:15.430Z,67.29
2023-04-30T03:35:18.430Z,67.42
2023-04-30T03:36:20.416Z,67.26
2023-04-30T03:37:21.901Z,67.24
2023-04-30T03:38:23.672Z,67.41
2023-04-30T03:39:25.162Z,67.73
2023-04-30T03:40:27.600Z,67.57
2023-04-30T03:41:29.296Z,67.34
2023-04-30T03:42:30.822Z,67.86
2023-04-30T03:43:32.544Z,67.60
2023-04-30T03:44:33.996Z,67.84
2023-04-30T03:45:35.799Z,67.58
2023-04-30T03:46:37.417Z,67.87
2023-04-30T03:47:39.055Z,67.73
2023-04-30T03:48:40.590Z,67.97
2023-04-30T03:49:42.268Z,67.93
2023-04-30T03:50:44.549Z,67.99
2023-04-30T03:51:47.216Z,68.08
2023-04-30T03:52:48.660Z,67.92
2023-04-30T03:53:50.419Z,68.32
2023-04-30T03:54:51.823Z,68.12
2023-04-30T03:55:54.265Z,67.93
2023-04-30T03:56:56.537Z,68.06
2023-04-30T03:57:59.694Z,68.20
2023-04-30T03:59:01.548Z,68.27
2023-04-30T04:00:07.267Z,68.61
2023-04-30T04:01:14.364Z,68.23
2023-04-30T04:02:15.932Z,68.51
2023-04-30T04:03:17.842Z,68.56
2023-04-30T04:04:19.356Z,68.42
2023-04-30T04:05:20.823Z,68.47
2023-04-30T04:06:22.614Z,68.49
2023-04-30T04:07:24.276Z,68.71
2023-04-30T04:08:25.790Z,68.82
2023-04-30T04:09:27.379Z,68.65
2023-04-30T04:10:28.916Z,68.77
2023-04-30T04:11:30.355Z,69.02
2023-04-30T04:12:31.922Z,68.77
2023-04-30T04:13:33.432Z,68.89
2023-04-30T04:14:35.683Z,69.24
2023-04-30T04:15:37.645Z,68.71
2023-04-30T04:16:39.347Z,69.06
2023-04-30T04:17:40.976Z,69.11
2023-04-30T04:18:42.682Z,68.85
2023-04-30T04:19:44.204Z,68.94
2023-04-30T04:20:46.314Z,69.15
2023-04-30T04:21:47.920Z,69.01
2023-04-30T04:22:50.318Z,69.24
2023-04-30T04:23:51.840Z,69.15
2023-04-30T04:24:54.576Z,69.03
2023-04-30T04:25:56.926Z,69.17
2023-04-30T04:26:59.061Z,69.13
2023-04-30T04:28:01.119Z,69.47
2023-04-30T04:29:04.075Z,69.05
2023-04-30T04:30:06.485Z,69.37
2023-04-30T04:31:08.353Z,69.27
2023-04-30T04:32:11.097Z,69.66
2023-04-30T04:33:12.811Z,69.42
2023-04-30T04:34:14.337Z,69.15
2023-04-30T04:35:18.218Z,69.26
2023-04-30T04:36:19.867Z,69.51
2023-04-30T04:37:21.600Z,69.29
2023-04-30T04:38:23.423Z,69.32
2023-04-30T04:39:24.860Z,69.32
2023-04-30T04:40:27.980Z,69.42
2023-04-30T04:41:37.584Z,69.60
2023-04-30T04:42:39.118Z,69.64
2023-04-30T04:43:40.573Z,69.39
2023-04-30T04:44:42.329Z,69.40
2023-04-30T04:45:43.760Z,69.37
2023-04-30T04:46:45.295Z,69.43
2023-04-30T04:47:47.572Z,69.42
2023-04-30T04:48:49.120Z,69.59
2023-04-30T04:49:50.551Z,69.42
2023-04-30T04:50:52.388Z,69.38
2023-04-30T04:51:53.929Z,69.33
2023-04-30T04:52:55.608Z,69.25
2023-04-30T04:53:57.065Z,69.49
2023-04-30T04:54:58.665Z,69.44
2023-04-30T04:56:01.985Z,69.38
2023-04-30T04:57:05.140Z,69.28
2023-04-30T04:58:06.701Z,69.25
2023-04-30T04:59:08.352Z,69.33
2023-04-30T05:00:11.258Z,69.22
2023-04-30T05:01:12.813Z,69.41
2023-04-30T05:02:14.244Z,69.26
2023-04-30T05:03:15.966Z,69.12
2023-04-30T05:04:17.440Z,69.13
2023-04-30T05:05:19.667Z,69.21
2023-04-30T05:06:21.402Z,69.14
2023-04-30T05:07:22.900Z,69.06
2023-04-30T05:08:24.371Z,68.89
2023-04-30T05:09:25.757Z,68.99
2023-04-30T05:10:27.219Z,69.06
2023-04-30T05:11:28.656Z,68.83
2023-04-30T05:12:30.363Z,68.82
2023-04-30T05:13:31.832Z,68.88
2023-04-30T05:14:33.298Z,68.86
2023-04-30T05:15:34.926Z,68.64
2023-04-30T05:16:36.345Z,68.38
2023-04-30T05:17:37.886Z,68.28
2023-04-30T05:18:39.317Z,68.29
2023-04-30T05:19:40.748Z,68.14
2023-04-30T05:20:42.157Z,67.99
2023-04-30T05:21:43.601Z,68.09
2023-04-30T05:22:45.105Z,68.13
2023-04-30T05:23:46.690Z,67.91
2023-04-30T05:24:48.315Z,68.08
2023-04-30T05:25:52.863Z,67.94
2023-04-30T05:26:54.250Z,67.81
2023-04-30T05:27:56.210Z,67.78
2023-04-30T05:28:57.716Z,67.68
2023-04-30T05:29:59.345Z,67.57
2023-04-30T05:31:01.346Z,67.56
2023-04-30T05:32:02.916Z,67.53
2023-04-30T05:33:04.585Z,67.61
2023-04-30T05:34:06.021Z,67.23
2023-04-30T05:35:08.361Z,67.30
2023-04-30T05:36:10.192Z,67.53
2023-04-30T05:37:13.780Z,67.24
2023-04-30T05:38:15.185Z,67.35
2023-04-30T05:39:16.832Z,67.20
2023-04-30T05:40:18.343Z,67.05
2023-04-30T05:41:20.752Z,66.95
2023-04-30T05:42:22.292Z,66.72
2023-04-30T05:43:23.737Z,66.35
2023-04-30T05:44:25.188Z,66.44
2023-04-30T05:45:27.059Z,65.97
2023-04-30T05:46:28.699Z,66.58
2023-04-30T05:47:30.505Z,66.05
2023-04-30T05:48:31.968Z,66.26
2023-04-30T05:49:35.625Z,66.01
2023-04-30T05:50:37.573Z,66.13
2023-04-30T05:51:39.013Z,65.69
2023-04-30T05:52:40.399Z,65.67
2023-04-30T05:53:41.773Z,65.92
2023-04-30T05:54:43.216Z,65.82
2023-04-30T05:55:44.798Z,65.88
2023-04-30T05:56:46.312Z,65.84
2023-04-30T05:57:47.763Z,65.69
2023-04-30T05:58:50.463Z,65.72
2023-04-30T05:59:53.184Z,65.69
2023-04-30T06:00:54.989Z,65.31
2023-04-30T06:01:56.421Z,65.15
2023-04-30T06:02:57.879Z,65.20
2023-04-30T06:04:00.647Z,65.08
2023-04-30T06:05:02.613Z,65.20
2023-04-30T06:06:04.541Z,65.04
2023-04-30T06:07:06.012Z,64.80
2023-04-30T06:08:07.438Z,64.97
2023-04-30T06:09:09.570Z,64.93
2023-04-30T06:10:11.914Z,64.59
2023-04-30T06:11:14.115Z,64.49
2023-04-30T06:12:15.555Z,64.40
2023-04-30T06:13:17.054Z,64.61
2023-04-30T06:14:19.560Z,63.84
2023-04-30T06:15:21.603Z,63.86
2023-04-30T06:16:23.572Z,63.73
2023-04-30T06:17:25.300Z,63.69
2023-04-30T06:18:26.814Z,63.88
2023-04-30T06:19:28.299Z,63.91
2023-04-30T06:20:29.958Z,63.69
2023-04-30T06:21:31.458Z,63.98
2023-04-30T06:22:33.679Z,64.02
2023-04-30T06:23:35.131Z,64.18
2023-04-30T06:24:36.534Z,63.56
2023-04-30T06:25:38.696Z,63.40
2023-04-30T06:26:40.129Z,63.73
2023-04-30T06:27:41.511Z,63.14
2023-04-30T06:28:42.919Z,63.37
2023-04-30T06:29:44.315Z,63.07
2023-04-30T06:30:45.708Z,62.87
2023-04-30T06:31:47.289Z,62.90
2023-04-30T06:32:48.747Z,62.80
2023-04-30T06:33:50.218Z,63.16
2023-04-30T06:34:51.712Z,63.00
2023-04-30T06:35:54.841Z,63.19
2023-04-30T06:36:56.369Z,62.80
2023-04-30T06:37:57.787Z,62.29
2023-04-30T06:38:59.267Z,61.98
2023-04-30T06:40:00.905Z,62.01
2023-04-30T06:41:02.366Z,61.71
2023-04-30T06:42:04.088Z,61.63
2023-04-30T06:43:05.454Z,61.64
2023-04-30T06:44:08.308Z,61.60
2023-04-30T06:45:11.724Z,61.66
2023-04-30T06:46:14.422Z,62.23
2023-04-30T06:47:15.874Z,61.80
2023-04-30T06:48:17.232Z,61.73
2023-04-30T06:49:18.655Z,61.42
2023-04-30T06:50:21.240Z,61.12
2023-04-30T06:51:22.706Z,60.39
2023-04-30T06:52:24.132Z,60.58
2023-04-30T06:53:25.787Z,60.72
2023-04-30T06:54:27.176Z,60.64
2023-04-30T06:55:28.724Z,60.89
2023-04-30T06:56:30.113Z,59.79
2023-04-30T06:57:31.802Z,60.22
2023-04-30T06:58:33.207Z,59.39
2023-04-30T06:59:34.613Z,59.68
2023-04-30T07:00:36.187Z,58.71
2023-04-30T07:01:37.853Z,59.17
2023-04-30T07:02:39.354Z,59.17
2023-04-30T07:03:41.093Z,58.71
2023-04-30T07:04:42.564Z,57.77
2023-04-30T07:05:44.576Z,58.35
2023-04-30T07:06:46.095Z,57.39
2023-04-30T07:07:48.520Z,57.44
2023-04-30T07:08:50.024Z,57.69
2023-04-30T07:09:52.856Z,56.97
2023-04-30T07:10:55.205Z,57.56
2023-04-30T07:11:58.030Z,57.00
2023-04-30T07:12:59.524Z,57.61
2023-04-30T07:14:01.057Z,57.36
2023-04-30T07:15:02.801Z,57.01
2023-04-30T07:16:05.409Z,56.59
2023-04-30T07:17:06.956Z,56.65
2023-04-30T07:18:09.306Z,56.89
2023-04-30T07:19:10.748Z,56.70
2023-04-30T07:20:14.009Z,56.09
2023-04-30T07:21:15.698Z,56.38
2023-04-30T07:22:17.227Z,56.26
2023-04-30T07:23:18.620Z,56.48
2023-04-30T07:24:20.041Z,56.58
2023-04-30T07:25:21.430Z,57.16
2023-04-30T07:26:25.302Z,56.45
2023-04-30T07:27:27.615Z,56.69
2023-04-30T07:28:28.969Z,56.08
2023-04-30T07:29:30.954Z,56.01
2023-04-30T07:30:33.069Z,55.71
2023-04-30T07:31:34.685Z,56.28
2023-04-30T07:32:36.954Z,55.86
2023-04-30T07:33:38.362Z,55.85
2023-04-30T07:34:39.851Z,55.72
2023-04-30T07:35:41.425Z,55.03
2023-04-30T07:36:42.947Z,54.91
2023-04-30T07:37:44.358Z,54.57
2023-04-30T07:38:45.764Z,55.01
2023-04-30T07:39:47.297Z,55.01
2023-04-30T07:40:48.673Z,55.63
2023-04-30T07:41:50.367Z,55.79
2023-04-30T07:42:51.829Z,54.94
2023-04-30T07:43:53.788Z,54.00
2023-04-30T07:44:55.337Z,54.35
2023-04-30T07:45:57.029Z,54.16
2023-04-30T07:46:58.516Z,53.69
2023-04-30T07:48:00.857Z,52.09
2023-04-30T07:49:03.313Z,52.56
2023-04-30T07:50:05.498Z,52.93
2023-04-30T07:51:07.219Z,52.96
2023-04-30T07:52:10.425Z,52.39
2023-04-30T07:53:12.176Z,52.65
2023-04-30T07:54:13.917Z,53.16
2023-04-30T07:55:15.683Z,52.72
2023-04-30T07:56:17.051Z,52.49
2023-04-30T07:57:18.610Z,52.53
2023-04-30T07:58:20.095Z,52.57
2023-04-30T07:59:23.786Z,52.56
2023-04-30T08:00:25.854Z,53.20
2023-04-30T08:01:27.364Z,52.89
2023-04-30T08:02:28.866Z,52.97
2023-04-30T08:03:30.567Z,52.65
2023-04-30T08:04:32.396Z,52.63
2023-04-30T08:05:34.041Z,52.07
2023-04-30T08:06:35.489Z,51.91
2023-04-30T08:07:37.066Z,52.05
2023-04-30T08:08:38.961Z,50.98
2023-04-30T08:09:40.520Z,50.71
2023-04-30T08:10:41.948Z,50.71
2023-04-30T08:11:43.390Z,51.00
2023-04-30T08:12:44.895Z,50.75
2023-04-30T08:13:46.615Z,50.98
2023-04-30T08:14:48.133Z,50.81
2023-04-30T08:15:49.799Z,50.55
2023-04-30T08:16:51.471Z,49.84
2023-04-30T08:17:53.217Z,49.09
2023-04-30T08:18:54.693Z,49.61
2023-04-30T08:19:56.503Z,49.63
2023-04-30T08:21:00.131Z,49.71
2023-04-30T08:22:01.626Z,49.30
2023-04-30T08:23:04.043Z,48.85
2023-04-30T08:24:05.680Z,49.62
2023-04-30T08:25:09.915Z,49.59
2023-04-30T08:26:11.308Z,49.48
2023-04-30T08:27:12.660Z,49.29
2023-04-30T08:28:14.171Z,49.32
2023-04-30T08:29:15.673Z,49.29
2023-04-30T08:30:17.283Z,48.73
2023-04-30T08:31:18.881Z,48.87
2023-04-30T08:32:20.417Z,48.01
2023-04-30T08:33:22.042Z,47.71
2023-04-30T08:34:23.699Z,47.66
2023-04-30T08:35:25.290Z,46.93
2023-04-30T08:36:27.218Z,45.25
2023-04-30T08:37:28.633Z,46.39
2023-04-30T08:38:30.219Z,46.42
2023-04-30T08:39:31.671Z,46.25
2023-04-30T08:40:50.278Z,46.05
2023-04-30T08:41:56.244Z,46.52
2023-04-30T08:43:08.728Z,46.59
2023-04-30T08:44:10.375Z,46.39
2023-04-30T08:45:15.585Z,46.33
2023-04-30T08:46:17.660Z,46.59
2023-04-30T08:47:20.168Z,46.82
2023-04-30T08:48:23.129Z,46.64
2023-04-30T08:49:25.049Z,46.50
2023-04-30T08:50:27.828Z,46.35
2023-04-30T08:51:32.471Z,45.14
2023-04-30T08:52:35.244Z,44.98
2023-04-30T08:53:40.163Z,46.02
2023-04-30T08:54:41.881Z,45.80
2023-04-30T08:55:43.971Z,45.91
2023-04-30T08:56:45.733Z,44.66
2023-04-30T08:57:47.170Z,44.41
2023-04-30T08:58:48.548Z,44.80
2023-04-30T08:59:50.199Z,44.77
2023-04-30T09:00:51.725Z,45.22
2023-04-30T09:01:54.088Z,44.95
2023-04-30T09:02:55.735Z,44.35
2023-04-30T09:03:57.735Z,44.37
2023-04-30T09:04:59.532Z,43.56
2023-04-30T09:06:01.277Z,44.55
2023-04-30T09:07:05.159Z,44.04
2023-04-30T09:08:10.466Z,44.34
2023-04-30T09:09:13.560Z,44.22
2023-04-30T09:10:18.927Z,44.52
2023-04-30T09:11:25.217Z,43.64
2023-04-30T09:12:26.799Z,43.76
2023-04-30T09:13:40.254Z,43.29
2023-04-30T09:14:58.620Z,43.13
2023-04-30T09:16:00.106Z,43.30
2023-04-30T09:17:01.840Z,42.97
2023-04-30T09:18:16.777Z,42.83
2023-04-30T09:19:26.261Z,43.38
2023-04-30T09:20:27.812Z,43.56
2023-04-30T09:21:33.110Z,43.68
2023-04-30T09:22:36.012Z,43.12
2023-04-30T09:23:54.250Z,42.62
2023-04-30T09:24:55.691Z,43.10
2023-04-30T09:25:57.258Z,43.15
2023-04-30T09:27:15.868Z,43.38
2023-04-30T09:28:18.655Z,43.58
2023-04-30T09:29:20.232Z,43.72
2023-04-30T09:30:32.141Z,43.49
2023-04-30T09:31:35.685Z,43.92
2023-04-30T09:32:54.516Z,43.83
2023-04-30T09:33:56.000Z,43.42
2023-04-30T09:34:57.618Z,43.31
2023-04-30T09:36:08.511Z,42.66
2023-04-30T09:37:10.861Z,42.64
2023-04-30T09:38:26.746Z,42.88
2023-04-30T09:39:28.296Z,42.94
2023-04-30T09:40:37.334Z,43.09
2023-04-30T09:41:39.111Z,42.97
2023-04-30T09:42:57.044Z,43.39
2023-04-30T09:43:58.795Z,42.91
2023-04-30T09:45:00.742Z,43.16
2023-04-30T09:46:03.006Z,43.08
2023-04-30T09:47:04.959Z,43.13
2023-04-30T09:48:16.891Z,42.16
2023-04-30T09:49:20.224Z,41.96
2023-04-30T09:50:25.860Z,42.25
2023-04-30T09:51:28.148Z,42.07
2023-04-30T09:52:29.614Z,41.06
2023-04-30T09:53:35.003Z,40.81
2023-04-30T09:54:37.070Z,41.13
2023-04-30T09:55:42.257Z,41.40
2023-04-30T09:56:44.122Z,40.61
2023-04-30T09:57:47.373Z,41.14
2023-04-30T09:58:54.154Z,40.91
2023-04-30T09:59:57.964Z,41.30
2023-04-30T10:01:02.795Z,41.07
2023-04-30T10:02:07.980Z,41.16
2023-04-30T10:03:11.650Z,41.57
2023-04-30T10:04:14.741Z,41.56
2023-04-30T10:05:17.009Z,41.63
2023-04-30T10:06:20.791Z,41.72
2023-04-30T10:07:24.196Z,41.41
2023-04-30T10:08:56.201Z,41.18
2023-04-30T10:10:04.504Z,41.00
2023-04-30T10:11:07.674Z,41.07
2023-04-30T10:12:19.932Z,41.17
2023-04-30T10:13:22.411Z,41.30
2023-04-30T10:14:28.159Z,40.25
2023-04-30T10:15:39.261Z,40.22
2023-04-30T10:16:47.142Z,39.33
2023-04-30T10:18:04.180Z,39.68
2023-04-30T10:19:13.353Z,39.20
2023-04-30T10:20:16.852Z,39.70
2023-04-30T10:21:21.978Z,40.18
2023-04-30T10:22:23.922Z,39.18
2023-04-30T10:23:25.611Z,39.74
2023-04-30T10:24:27.456Z,40.10
2023-04-30T10:25:28.859Z,39.70
2023-04-30T10:26:31.097Z,39.13
2023-04-30T10:27:34.064Z,39.28
2023-04-30T10:28:36.501Z,39.08
2023-04-30T10:29:37.989Z,39.93
2023-04-30T10:30:42.848Z,37.81
2023-04-30T10:31:49.318Z,38.93
2023-04-30T10:33:00.918Z,38.69
2023-04-30T10:34:35.257Z,38.84
2023-04-30T10:35:49.173Z,38.83
2023-04-30T10:37:06.589Z,39.33
2023-04-30T10:38:26.456Z,39.24
2023-04-30T10:39:28.560Z,37.15
2023-04-30T10:40:35.968Z,37.26
2023-04-30T10:41:37.832Z,37.67
2023-04-30T10:42:45.233Z,37.21
2023-04-30T10:43:47.763Z,37.22
2023-04-30T10:44:49.564Z,37.52
2023-04-30T10:45:51.266Z,36.44
2023-04-30T10:47:03.226Z,35.85
2023-04-30T10:48:06.516Z,37.07
2023-04-30T10:49:08.085Z,37.45
2023-04-30T10:50:10.575Z,37.56
2023-04-30T10:51:12.008Z,37.84
2023-04-30T10:52:13.542Z,37.89
2023-04-30T10:53:19.204Z,38.32
2023-04-30T10:54:28.646Z,38.05
2023-04-30T10:55:30.914Z,37.48
2023-04-30T10:56:33.220Z,37.80
2023-04-30T10:57:42.978Z,36.82
2023-04-30T10:58:44.831Z,36.46
2023-04-30T11:00:08.971Z,36.21
2023-04-30T11:01:17.031Z,35.60
2023-04-30T11:02:18.994Z,35.78
2023-04-30T11:03:21.594Z,36.45
2023-04-30T11:04:23.736Z,36.41
2023-04-30T11:05:37.439Z,34.95
2023-04-30T11:06:52.110Z,35.88
2023-04-30T11:07:57.825Z,35.69
2023-04-30T11:09:03.154Z,35.57
2023-04-30T11:10:07.978Z,35.17
2023-04-30T11:11:10.847Z,34.33
2023-04-30T11:12:14.853Z,35.01
2023-04-30T11:13:16.251Z,35.14
2023-04-30T11:14:20.902Z,35.79
2023-04-30T11:15:29.456Z,36.01
2023-04-30T11:16:34.186Z,35.74
2023-04-30T11:17:37.532Z,35.47
2023-04-30T11:18:46.109Z,34.72
2023-04-30T11:19:49.374Z,34.72
2023-04-30T11:21:04.393Z,34.93
2023-04-30T11:22:06.558Z,34.08
2023-04-30T11:23:08.610Z,33.25
2023-04-30T11:24:12.171Z,33.55
2023-04-30T11:25:19.132Z,33.79
2023-04-30T11:26:20.547Z,33.87
2023-04-30T11:27:30.045Z,33.74
2023-04-30T11:28:35.046Z,33.46
2023-04-30T11:29:36.699Z,33.95
2023-04-30T11:30:38.970Z,33.35
2023-04-30T11:31:42.124Z,33.25
2023-04-30T11:32:47.030Z,33.59
2023-04-30T11:33:49.881Z,33.64
2023-04-30T11:34:51.404Z,32.09
2023-04-30T11:35:55.173Z,32.94
2023-04-30T11:36:59.329Z,33.11
2023-04-30T11:38:01.519Z,32.94
2023-04-30T11:39:05.590Z,32.62
2023-04-30T11:40:12.399Z,31.44
2023-04-30T11:41:14.226Z,32.13
2023-04-30T11:42:19.170Z,32.19
2023-04-30T11:43:25.513Z,31.51
2023-04-30T11:44:27.474Z,31.91
2023-04-30T11:45:29.775Z,31.37
2023-04-30T11:46:31.409Z,31.37
2023-04-30T11:47:46.171Z,30.62
2023-04-30T11:48:47.970Z,30.18
2023-04-30T11:49:50.867Z,30.74
2023-04-30T11:50:52.302Z,30.09
2023-04-30T11:51:53.741Z,29.87
2023-04-30T11:52:57.739Z,30.42
2023-04-30T11:53:59.155Z,31.07
2023-04-30T11:55:00.613Z,30.42
2023-04-30T11:56:03.340Z,30.28
2023-04-30T11:57:05.706Z,30.43
2023-04-30T11:58:09.917Z,30.34
2023-04-30T11:59:12.702Z,31.09
2023-04-30T12:00:17.357Z,31.20
2023-04-30T12:01:20.240Z,30.80
2023-04-30T12:02:22.569Z,30.96
2023-04-30T12:03:24.378Z,30.90
2023-04-30T12:04:26.711Z,30.83
2023-04-30T12:05:28.605Z,30.53
2023-04-30T12:06:30.540Z,29.24
2023-04-30T12:07:32.116Z,29.44
2023-04-30T12:08:34.222Z,29.44
2023-04-30T12:09:52.369Z,29.68
2023-04-30T12:10:53.901Z,28.25
2023-04-30T12:11:55.314Z,28.68
2023-04-30T12:12:57.218Z,28.15
2023-04-30T12:14:03.610Z,28.14
2023-04-30T12:15:13.150Z,28.46
2023-04-30T12:16:15.049Z,29.08
2023-04-30T12:17:32.972Z,29.08
2023-04-30T12:18:34.530Z,29.14
2023-04-30T12:19:36.330Z,28.31
2023-04-30T12:20:39.113Z,27.70
2023-04-30T12:21:43.994Z,28.20
2023-04-30T12:22:45.735Z,27.31
2023-04-30T12:23:47.408Z,26.17
2023-04-30T12:24:49.020Z,26.07
2023-04-30T12:25:51.139Z,26.91
2023-04-30T12:26:53.433Z,27.27
2023-04-30T12:27:55.099Z,27.23
2023-04-30T12:28:56.701Z,26.74
2023-04-30T12:30:07.539Z,26.63
2023-04-30T12:31:09.438Z,26.52
2023-04-30T12:32:10.953Z,26.03
2023-04-30T12:33:12.394Z,26.55
2023-04-30T12:34:14.598Z,26.53
2023-04-30T12:35:18.219Z,26.23
2023-04-30T12:36:19.936Z,25.45
2023-04-30T12:37:21.553Z,25.22
2023-04-30T12:38:23.303Z,26.05
2023-04-30T12:39:25.513Z,25.99
2023-04-30T12:40:27.406Z,25.13
2023-04-30T12:41:29.510Z,25.59
2023-04-30T12:42:35.189Z,25.54
2023-04-30T12:43:36.600Z,25.24
2023-04-30T12:44:44.625Z,25.23
2023-04-30T12:45:47.403Z,24.16
2023-04-30T12:46:50.740Z,24.92
2023-04-30T12:47:53.222Z,23.83
2023-04-30T12:48:55.157Z,24.22
2023-04-30T12:49:56.918Z,24.74
2023-04-30T12:51:00.567Z,24.58
2023-04-30T12:52:17.079Z,24.37
2023-04-30T12:53:25.605Z,24.27
2023-04-30T12:54:29.741Z,24.61
2023-04-30T12:55:31.308Z,24.43
2023-04-30T12:56:32.720Z,23.90
2023-04-30T12:57:34.270Z,24.30
2023-04-30T12:58:37.577Z,23.76
2023-04-30T12:59:58.413Z,23.75
2023-04-30T13:01:00.372Z,23.31
2023-04-30T13:02:06.377Z,23.51
2023-04-30T13:03:07.987Z,23.33
2023-04-30T13:04:09.624Z,23.51
2023-04-30T13:05:12.626Z,23.17
2023-04-30T13:06:15.572Z,23.51
2023-04-30T13:07:17.071Z,23.85
2023-04-30T13:08:20.096Z,23.78
2023-04-30T13:09:21.679Z,21.79
2023-04-30T13:10:24.556Z,21.28
2023-04-30T13:11:27.296Z,22.40
2023-04-30T13:12:29.181Z,22.42
2023-04-30T13:13:30.717Z,23.06
2023-04-30T13:14:32.564Z,22.46
2023-04-30T13:15:34.424Z,23.00
2023-04-30T13:16:37.491Z,23.43
2023-04-30T13:17:40.929Z,22.70
2023-04-30T13:18:42.664Z,22.74
2023-04-30T13:19:44.121Z,23.08
2023-04-30T13:20:45.650Z,22.60
2023-04-30T13:21:47.095Z,21.77
2023-04-30T13:22:48.722Z,22.01
2023-04-30T13:23:53.415Z,22.23
2023-04-30T13:24:56.261Z,22.24
2023-04-30T13:25:57.845Z,22.41
2023-04-30T13:26:59.511Z,22.48
2023-04-30T13:28:01.446Z,22.20
2023-04-30T13:29:03.642Z,21.61
2023-04-30T13:30:05.867Z,21.02
2023-04-30T13:31:07.354Z,21.63
2023-04-30T13:32:09.659Z,21.71
2023-04-30T13:33:11.914Z,21.20
2023-04-30T13:34:14.555Z,21.59
2023-04-30T13:35:16.212Z,21.25
2023-04-30T13:36:17.830Z,21.35
2023-04-30T13:37:19.291Z,22.38
2023-04-30T13:38:21.398Z,22.60
2023-04-30T13:39:22.894Z,22.73
2023-04-30T13:40:24.486Z,22.62